Главная страница
METAR-TAF:

METAR-TAF

Аэропорты :

Гаррисберг, Пенсильвания, США

широта: 40-13-02N, долгота: 076-51-05W, высота над уровнем моря: 106 м

Текущие метеонаблюдения

Эта сводка был подготовлена 48 минут назад, в 12:56 UTC
Ветер 3 Узел переменных направлений
Температура 26°C
Влажность 74%
Давление 1021 hPa
Видимость: 16.1 км
ясное небо

METAR: KCXY 091256Z VRB03KT 10SM CLR 26/21 A3015 RMK AO2 SLP206 T02560206

Время: 09:44 (13:44 UTC)


TAF: отсутствует

Метеонаблюдения и прогнозы для более 4000 аэропортов (сводки METAR и TAF).

Имеющиеся станции представлены на карте желтыми и красными точками.

Чтобы увидеть название станции, наведите на нее мышь.

Затем щелкните, чтобы увидеть метеонаблюдения и метеопрогнозы.

Управление картой: чтобы увеличить масштаб, щелкните зеленые кнопки с черным крестиком; чтобы уменьшить масштаб, щелкните зеленую кнопку с тире; для просмотра соседних карт щелкайте зеленые стрелки.


METAR-TAF: